Time;durP1;ratioP1;P1;durP2;ratioP2;P2;SDS_P1;SDS_P2;PMS_P1;PMS_P2;Temp;Humidity;BMP_temperature;BMP_pressure;BME280_temperature;BME280_humidity;BME280_pressure;Samples;Min_cycle;Max_cycle;Signal;HPM_P1;HPM_P2
2020/12/13 00:00:04;;;;;;;183.02;89.65;;;;;;;;;;5059638;28;20368;-82
2020/12/13 00:02:29;;;;;;;189.65;90.50;;;;;;;;;;5065418;28;20467;-81
2020/12/13 00:04:56;;;;;;;182.77;89.85;;;;;;;;;;5039136;28;21147;-82
2020/12/13 00:07:22;;;;;;;183.27;88.80;;;;;;;;;;5047629;28;20783;-82
2020/12/13 00:09:49;;;;;;;179.07;85.68;;;;;;;;;;5063116;28;20381;-81
2020/12/13 00:12:15;;;;;;;177.27;88.75;;;;;;;;;;5032018;28;20399;-81
2020/12/13 00:14:41;;;;;;;156.13;81.13;;;;;;;;;;5032492;28;20386;-81
2020/12/13 00:17:07;;;;;;;170.40;84.70;;;;;;;;;;5050014;28;20363;-82
2020/12/13 00:19:33;;;;;;;156.07;81.68;;;;;;;;;;5032076;28;20466;-81
2020/12/13 00:21:59;;;;;;;173.02;85.22;;;;;;;;;;5050065;28;20742;-83
2020/12/13 00:24:25;;;;;;;156.77;80.10;;;;;;;;;;5050070;28;20360;-82
2020/12/13 00:26:51;;;;;;;157.60;82.78;;;;;;;;;;5030552;28;20368;-81
2020/12/13 00:29:18;;;;;;;166.60;85.30;;;;;;;;;;5047835;28;20827;-81
2020/12/13 00:31:44;;;;;;;152.88;81.70;;;;;;;;;;5031067;28;20399;-81
2020/12/13 00:34:10;;;;;;;150.85;79.57;;;;;;;;;;5031795;28;21000;-80
2020/12/13 00:36:36;;;;;;;150.98;78.55;;;;;;;;;;5049641;28;20901;-81
2020/12/13 00:39:04;;;;;;;161.77;82.90;;;;;;;;;;5049720;28;20738;-81
2020/12/13 00:41:30;;;;;;;164.03;83.27;;;;;;;;;;5050397;28;20452;-81
2020/12/13 00:43:56;;;;;;;173.20;86.72;;;;;;;;;;5050066;28;20446;-81
2020/12/13 00:46:22;;;;;;;170.77;85.45;;;;;;;;;;5035987;28;20368;-81
2020/12/13 00:48:50;;;;;;;180.68;89.68;;;;;;;;;;5035894;28;20407;-81
2020/12/13 00:51:21;;;;;;;185.07;88.95;;;;;;;;;;5035462;28;21162;-81
2020/12/13 00:53:47;;;;;;;161.52;83.55;;;;;;;;;;5035920;28;21193;-81
2020/12/13 00:56:14;;;;;;;179.20;88.07;;;;;;;;;;5035951;28;20448;-81
2020/12/13 00:58:40;;;;;;;184.77;88.85;;;;;;;;;;5035593;28;20384;-81
2020/12/13 01:01:06;;;;;;;192.55;90.22;;;;;;;;;;5035472;28;20429;-81
2020/12/13 01:03:32;;;;;;;193.27;91.87;;;;;;;;;;5053793;28;20372;-81
2020/12/13 01:05:58;;;;;;;186.13;90.80;;;;;;;;;;5035615;28;20372;-81
2020/12/13 01:08:24;;;;;;;202.90;93.78;;;;;;;;;;5053545;28;20850;-81
2020/12/13 01:10:50;;;;;;;202.02;94.50;;;;;;;;;;5035344;28;20395;-81
2020/12/13 01:13:16;;;;;;;212.00;97.72;;;;;;;;;;5035566;28;20478;-81
2020/12/13 01:15:42;;;;;;;189.80;90.32;;;;;;;;;;5053433;28;20405;-81
2020/12/13 01:18:08;;;;;;;229.73;100.88;;;;;;;;;;5035443;28;21002;-82
2020/12/13 01:20:34;;;;;;;216.82;98.88;;;;;;;;;;5035375;28;20375;-81
2020/12/13 01:23:00;;;;;;;197.07;94.75;;;;;;;;;;5035201;28;20360;-81
2020/12/13 01:25:26;;;;;;;216.17;97.53;;;;;;;;;;5035324;28;20383;-81
2020/12/13 01:27:52;;;;;;;200.15;93.78;;;;;;;;;;5053389;28;20367;-81
2020/12/13 01:30:18;;;;;;;204.20;95.33;;;;;;;;;;5034913;28;20372;-81
2020/12/13 01:32:44;;;;;;;220.13;98.45;;;;;;;;;;5035221;28;20363;-81
2020/12/13 01:35:11;;;;;;;213.25;98.78;;;;;;;;;;5035042;28;20874;-81
2020/12/13 01:37:37;;;;;;;213.30;98.75;;;;;;;;;;5034830;28;20368;-81
2020/12/13 01:40:04;;;;;;;222.30;99.35;;;;;;;;;;5035041;28;20779;-81
2020/12/13 01:42:36;;;;;;;231.55;102.05;;;;;;;;;;5034879;28;20414;-81
2020/12/13 01:45:03;;;;;;;234.27;102.60;;;;;;;;;;5052638;28;20348;-81
2020/12/13 01:47:29;;;;;;;219.50;100.73;;;;;;;;;;5034861;28;20364;-81
2020/12/13 01:49:55;;;;;;;220.05;98.50;;;;;;;;;;5034288;28;20371;-81
2020/12/13 01:55:06;;;;;;;198.40;92.57;;;;;;;;;;5052455;28;20363;-81
2020/12/13 01:57:34;;;;;;;204.02;93.72;;;;;;;;;;5033911;28;20380;-81
2020/12/13 02:00:02;;;;;;;210.50;96.15;;;;;;;;;;5034433;28;20376;-81
2020/12/13 02:02:31;;;;;;;216.35;96.57;;;;;;;;;;5034436;28;20391;-81
2020/12/13 02:04:58;;;;;;;206.70;94.43;;;;;;;;;;5052486;28;20364;-82
2020/12/13 02:07:26;;;;;;;202.20;93.32;;;;;;;;;;5052348;28;20765;-81
2020/12/13 02:09:52;;;;;;;227.00;100.88;;;;;;;;;;5034183;28;20418;-81
2020/12/13 02:12:18;;;;;;;226.00;99.57;;;;;;;;;;5034102;28;20878;-81
2020/12/13 02:14:44;;;;;;;221.30;99.93;;;;;;;;;;5052193;28;20405;-81
2020/12/13 02:17:10;;;;;;;223.73;98.33;;;;;;;;;;5033883;28;20376;-81
2020/12/13 02:19:36;;;;;;;204.60;94.43;;;;;;;;;;5034240;28;20372;-81
2020/12/13 02:22:02;;;;;;;184.45;90.03;;;;;;;;;;5051920;28;20352;-81
2020/12/13 02:24:28;;;;;;;216.00;97.97;;;;;;;;;;5052004;28;20368;-81
2020/12/13 02:26:54;;;;;;;190.23;90.30;;;;;;;;;;5033974;28;20866;-81
2020/12/13 02:29:20;;;;;;;172.63;87.68;;;;;;;;;;5033914;28;20411;-81
2020/12/13 02:31:46;;;;;;;168.80;85.13;;;;;;;;;;5033701;28;20427;-81
2020/12/13 02:34:12;;;;;;;185.20;90.78;;;;;;;;;;5051627;28;20837;-81
2020/12/13 02:36:38;;;;;;;159.57;83.70;;;;;;;;;;5034035;28;20371;-82
2020/12/13 02:39:06;;;;;;;162.35;86.25;;;;;;;;;;5033571;28;20850;-81
2020/12/13 02:41:32;;;;;;;167.20;84.18;;;;;;;;;;5033742;28;20402;-82
2020/12/13 02:43:58;;;;;;;165.15;85.53;;;;;;;;;;5033640;28;20367;-82
2020/12/13 02:46:24;;;;;;;154.75;82.47;;;;;;;;;;5033619;28;20471;-82
2020/12/13 02:48:50;;;;;;;179.87;87.30;;;;;;;;;;5033760;28;20459;-81
2020/12/13 02:51:16;;;;;;;182.65;85.45;;;;;;;;;;5033399;28;20395;-81
2020/12/13 02:53:42;;;;;;;151.68;80.43;;;;;;;;;;5033678;28;20368;-81
2020/12/13 02:56:08;;;;;;;175.07;87.63;;;;;;;;;;5033680;28;20376;-81
2020/12/13 02:58:34;;;;;;;181.20;90.22;;;;;;;;;;5051554;28;20380;-81
2020/12/13 03:01:00;;;;;;;182.02;89.75;;;;;;;;;;5033010;28;20380;-82
2020/12/13 03:03:26;;;;;;;165.98;85.40;;;;;;;;;;5051428;28;20363;-81
2020/12/13 03:05:52;;;;;;;172.30;86.80;;;;;;;;;;5051156;28;20356;-81
2020/12/13 03:08:18;;;;;;;174.02;85.70;;;;;;;;;;5032465;28;20846;-81
2020/12/13 03:10:44;;;;;;;174.10;87.77;;;;;;;;;;5032796;28;20502;-82
2020/12/13 03:13:10;;;;;;;198.55;94.18;;;;;;;;;;5051048;28;20973;-81
2020/12/13 03:15:36;;;;;;;174.77;86.72;;;;;;;;;;5033450;28;20459;-81
2020/12/13 03:18:02;;;;;;;181.90;90.00;;;;;;;;;;5051041;28;20368;-81
2020/12/13 03:20:28;;;;;;;170.18;87.22;;;;;;;;;;5050845;28;20451;-81
2020/12/13 03:22:54;;;;;;;166.43;85.07;;;;;;;;;;5033227;28;20379;-81
2020/12/13 03:25:20;;;;;;;166.77;84.30;;;;;;;;;;5033146;28;20376;-81
2020/12/13 03:27:46;;;;;;;180.60;90.97;;;;;;;;;;5032819;28;20371;-81
2020/12/13 03:30:12;;;;;;;176.13;89.00;;;;;;;;;;5050532;28;20479;-81
2020/12/13 03:32:38;;;;;;;186.20;90.23;;;;;;;;;;5032849;28;20956;-81
2020/12/13 03:35:04;;;;;;;174.20;87.18;;;;;;;;;;5051093;28;20368;-81
2020/12/13 03:37:30;;;;;;;167.98;85.00;;;;;;;;;;5050601;28;20360;-81
2020/12/13 03:39:56;;;;;;;192.35;91.75;;;;;;;;;;5032776;28;20498;-81
2020/12/13 03:42:22;;;;;;;193.68;92.70;;;;;;;;;;5032689;28;20514;-81
2020/12/13 03:44:49;;;;;;;179.60;89.43;;;;;;;;;;5032653;28;20371;-81
2020/12/13 03:47:15;;;;;;;171.68;87.25;;;;;;;;;;5032932;28;20365;-81
2020/12/13 03:49:41;;;;;;;173.00;87.65;;;;;;;;;;5050343;28;20360;-81
2020/12/13 03:52:07;;;;;;;192.77;91.80;;;;;;;;;;5032596;28;20422;-81
2020/12/13 03:54:33;;;;;;;182.95;91.25;;;;;;;;;;5050579;28;20751;-81
2020/12/13 03:56:59;;;;;;;170.65;87.40;;;;;;;;;;5032277;28;20407;-81
2020/12/13 03:59:25;;;;;;;166.03;85.73;;;;;;;;;;5032613;28;20368;-81
2020/12/13 04:01:51;;;;;;;180.00;88.53;;;;;;;;;;5050303;28;20364;-81
2020/12/13 04:04:17;;;;;;;177.30;89.25;;;;;;;;;;5032672;28;20372;-81
2020/12/13 04:06:43;;;;;;;171.95;87.18;;;;;;;;;;5050648;28;20475;-81
2020/12/13 04:09:09;;;;;;;183.52;91.50;;;;;;;;;;5032184;28;20379;-81
2020/12/13 04:11:35;;;;;;;173.18;86.57;;;;;;;;;;5032364;28;20395;-81
2020/12/13 04:14:01;;;;;;;189.35;90.75;;;;;;;;;;5050248;28;20726;-81
2020/12/13 04:16:30;;;;;;;184.77;90.65;;;;;;;;;;5032467;28;20406;-81
2020/12/13 04:18:56;;;;;;;183.93;91.73;;;;;;;;;;5050217;28;20364;-81
2020/12/13 04:21:22;;;;;;;177.90;88.10;;;;;;;;;;5054100;28;20454;-81
2020/12/13 04:23:48;;;;;;;185.38;90.13;;;;;;;;;;5054481;28;20363;-82
2020/12/13 04:26:14;;;;;;;195.48;91.05;;;;;;;;;;5054108;28;20390;-81
2020/12/13 04:28:40;;;;;;;183.48;88.25;;;;;;;;;;5036422;28;20374;-81
2020/12/13 04:31:06;;;;;;;166.80;85.50;;;;;;;;;;5035943;28;20762;-81
2020/12/13 04:33:32;;;;;;;182.98;86.85;;;;;;;;;;5036344;28;20364;-81
2020/12/13 04:35:58;;;;;;;173.68;84.93;;;;;;;;;;5036208;28;20374;-82
2020/12/13 04:38:24;;;;;;;176.95;87.03;;;;;;;;;;5035973;28;20414;-81
2020/12/13 04:40:50;;;;;;;174.43;87.90;;;;;;;;;;5035747;28;20404;-81
2020/12/13 04:43:16;;;;;;;181.57;90.03;;;;;;;;;;5036222;28;20453;-81
2020/12/13 04:45:43;;;;;;;178.05;89.25;;;;;;;;;;5053835;28;20391;-81
2020/12/13 04:48:09;;;;;;;175.38;85.53;;;;;;;;;;5035985;28;20363;-81
2020/12/13 04:50:37;;;;;;;162.13;82.28;;;;;;;;;;5035542;28;20434;-81
2020/12/13 04:53:15;;;;;;;158.77;82.20;;;;;;;;;;5035736;28;20360;-81
2020/12/13 04:55:55;;;;;;;168.93;84.05;;;;;;;;;;5035961;28;20426;-81
2020/12/13 04:58:22;;;;;;;170.27;83.47;;;;;;;;;;5035484;28;20427;-82
2020/12/13 05:00:57;;;;;;;165.10;82.47;;;;;;;;;;5053237;28;20900;-81
2020/12/13 05:03:24;;;;;;;162.50;82.40;;;;;;;;;;5035808;28;20394;-81
2020/12/13 05:05:50;;;;;;;154.95;77.95;;;;;;;;;;5053516;28;20387;-81
2020/12/13 05:08:17;;;;;;;158.23;80.75;;;;;;;;;;5035708;28;20852;-81
2020/12/13 05:10:43;;;;;;;142.23;76.13;;;;;;;;;;5035384;28;20395;-81
2020/12/13 05:13:09;;;;;;;170.77;83.90;;;;;;;;;;5035411;28;20375;-81
2020/12/13 05:15:35;;;;;;;154.98;80.22;;;;;;;;;;5035418;28;20379;-81
2020/12/13 05:18:01;;;;;;;159.35;82.15;;;;;;;;;;5035454;28;20372;-82
2020/12/13 05:20:28;;;;;;;164.18;81.28;;;;;;;;;;5034976;28;20368;-81
2020/12/13 05:22:57;;;;;;;153.88;80.50;;;;;;;;;;5035359;28;20446;-81
2020/12/13 05:25:30;;;;;;;166.48;83.97;;;;;;;;;;5053625;28;20382;-81
2020/12/13 05:27:58;;;;;;;168.18;83.65;;;;;;;;;;5035431;28;20379;-81
2020/12/13 05:30:32;;;;;;;151.80;79.35;;;;;;;;;;5034872;28;20433;-82
2020/12/13 05:33:03;;;;;;;158.20;80.97;;;;;;;;;;5034296;28;20429;-81
2020/12/13 05:35:29;;;;;;;159.03;81.90;;;;;;;;;;5035271;28;20372;-81
2020/12/13 05:37:56;;;;;;;169.00;84.80;;;;;;;;;;5053331;28;20371;-81
2020/12/13 05:40:22;;;;;;;166.98;83.60;;;;;;;;;;5052682;28;20376;-81
2020/12/13 05:42:57;;;;;;;158.90;81.57;;;;;;;;;;5035034;28;20364;-81
2020/12/13 05:45:39;;;;;;;148.55;77.50;;;;;;;;;;5052769;28;20352;-81
2020/12/13 05:53:44;;;;;;;148.45;78.30;;;;;;;;;;5052928;28;20375;-81
2020/12/13 05:56:10;;;;;;;154.65;79.13;;;;;;;;;;5053181;28;20422;-81
2020/12/13 05:58:36;;;;;;;148.02;79.55;;;;;;;;;;5052713;28;20372;-81
2020/12/13 06:01:06;;;;;;;151.55;78.00;;;;;;;;;;5034557;28;20467;-82
2020/12/13 06:03:34;;;;;;;161.07;80.82;;;;;;;;;;5052324;28;20846;-82
2020/12/13 06:06:07;;;;;;;156.60;82.07;;;;;;;;;;5052397;28;20368;-81
2020/12/13 06:08:52;;;;;;;161.63;82.57;;;;;;;;;;5034601;28;20364;-81
2020/12/13 06:11:20;;;;;;;155.10;80.57;;;;;;;;;;5052253;28;20391;-81
2020/12/13 06:13:52;;;;;;;152.73;80.55;;;;;;;;;;5052093;28;20430;-81
2020/12/13 06:16:18;;;;;;;165.10;83.38;;;;;;;;;;5034649;28;20368;-82
2020/12/13 06:18:44;;;;;;;145.17;77.97;;;;;;;;;;5034179;28;20742;-80
2020/12/13 06:21:11;;;;;;;153.77;80.43;;;;;;;;;;5052294;28;20368;-81
2020/12/13 06:23:38;;;;;;;151.48;79.75;;;;;;;;;;5034246;28;20364;-81
2020/12/13 06:26:05;;;;;;;166.88;84.28;;;;;;;;;;5051984;28;20364;-81
2020/12/13 06:28:31;;;;;;;160.82;80.88;;;;;;;;;;5034045;28;20381;-81
2020/12/13 06:31:00;;;;;;;144.40;77.82;;;;;;;;;;5034062;28;20479;-81
2020/12/13 06:33:26;;;;;;;160.88;80.55;;;;;;;;;;5033799;28;20380;-81
2020/12/13 06:35:52;;;;;;;152.18;78.32;;;;;;;;;;5051803;28;20360;-81
2020/12/13 06:38:19;;;;;;;155.73;79.95;;;;;;;;;;5034156;28;20371;-81
2020/12/13 06:40:48;;;;;;;147.93;77.95;;;;;;;;;;5033667;28;20371;-80
2020/12/13 06:43:17;;;;;;;158.10;82.47;;;;;;;;;;5051883;28;20367;-81
2020/12/13 06:45:43;;;;;;;156.80;79.70;;;;;;;;;;5033904;28;20378;-82
2020/12/13 06:48:09;;;;;;;148.90;78.30;;;;;;;;;;5051772;28;20449;-81
2020/12/13 06:50:37;;;;;;;161.15;80.65;;;;;;;;;;5033501;28;20430;-81
2020/12/13 06:53:03;;;;;;;142.23;75.70;;;;;;;;;;5051421;28;20448;-81
2020/12/13 06:55:33;;;;;;;154.30;79.30;;;;;;;;;;5033569;28;20438;-81
2020/12/13 06:58:00;;;;;;;143.73;76.45;;;;;;;;;;5033538;28;20380;-81
2020/12/13 07:00:27;;;;;;;144.80;76.45;;;;;;;;;;5033228;28;20434;-81
2020/12/13 07:02:57;;;;;;;136.25;71.97;;;;;;;;;;5051356;28;20842;-81
2020/12/13 07:05:44;;;;;;;145.55;77.30;;;;;;;;;;5051745;28;20455;-81
2020/12/13 07:08:16;;;;;;;137.77;76.20;;;;;;;;;;5035108;28;20372;-81
2020/12/13 07:10:46;;;;;;;131.85;72.05;;;;;;;;;;5050658;28;20360;-81
2020/12/13 07:13:16;;;;;;;137.52;75.20;;;;;;;;;;5050993;28;20363;-81
2020/12/13 07:15:47;;;;;;;138.50;72.88;;;;;;;;;;5051410;28;20388;-81
2020/12/13 07:18:16;;;;;;;130.55;72.05;;;;;;;;;;5033203;28;20907;-81
2020/12/13 07:20:44;;;;;;;134.13;71.53;;;;;;;;;;5032992;28;20468;-81
2020/12/13 07:23:10;;;;;;;133.23;72.75;;;;;;;;;;5051349;28;20463;-81
2020/12/13 07:25:36;;;;;;;133.63;73.30;;;;;;;;;;5033088;28;20382;-82
2020/12/13 07:28:03;;;;;;;137.63;75.18;;;;;;;;;;5033040;28;20368;-81
2020/12/13 07:30:29;;;;;;;149.63;77.57;;;;;;;;;;5016577;28;20426;-82
2020/12/13 07:32:58;;;;;;;135.75;72.88;;;;;;;;;;5050657;28;20367;-81
2020/12/13 07:35:24;;;;;;;128.57;72.03;;;;;;;;;;5030247;28;20767;-82
2020/12/13 07:37:50;;;;;;;123.97;71.75;;;;;;;;;;5032780;28;20455;-81
2020/12/13 07:40:16;;;;;;;128.52;73.07;;;;;;;;;;5032584;28;20360;-82
2020/12/13 07:42:59;;;;;;;126.38;72.35;;;;;;;;;;5032972;28;20407;-81
2020/12/13 07:45:26;;;;;;;123.82;69.85;;;;;;;;;;5032757;28;20406;-81
2020/12/13 07:48:02;;;;;;;125.83;71.20;;;;;;;;;;5032832;28;20376;-82
2020/12/13 07:50:34;;;;;;;121.77;71.53;;;;;;;;;;5050576;28;20392;-81
2020/12/13 07:53:01;;;;;;;122.90;69.00;;;;;;;;;;5032825;28;20404;-81
2020/12/13 07:55:27;;;;;;;121.85;67.47;;;;;;;;;;5032086;28;20437;-81
2020/12/13 07:57:53;;;;;;;129.03;71.93;;;;;;;;;;5050739;28;20383;-82
2020/12/13 08:00:20;;;;;;;125.85;71.35;;;;;;;;;;5032450;28;20421;-81
2020/12/13 08:02:46;;;;;;;125.78;71.25;;;;;;;;;;5050317;28;20363;-82
2020/12/13 08:05:13;;;;;;;123.25;69.57;;;;;;;;;;5032463;28;20418;-82
2020/12/13 08:07:39;;;;;;;129.75;73.45;;;;;;;;;;5032718;28;20387;-81
2020/12/13 08:10:05;;;;;;;126.50;72.53;;;;;;;;;;5050425;28;20367;-80
2020/12/13 08:12:34;;;;;;;136.02;75.60;;;;;;;;;;5032452;28;20403;-81
2020/12/13 08:15:00;;;;;;;123.68;70.88;;;;;;;;;;5032578;28;20854;-82
2020/12/13 08:17:26;;;;;;;128.98;72.07;;;;;;;;;;5033276;28;20387;-84
2020/12/13 08:19:54;;;;;;;138.63;76.90;;;;;;;;;;5031272;28;20406;-84
2020/12/13 08:22:24;;;;;;;121.97;71.07;;;;;;;;;;5047000;28;20370;-83
2020/12/13 08:24:57;;;;;;;126.78;72.20;;;;;;;;;;5069701;28;20841;-83
2020/12/13 08:27:24;;;;;;;125.45;71.57;;;;;;;;;;5054403;28;20380;-82
2020/12/13 08:29:52;;;;;;;128.95;74.45;;;;;;;;;;5033696;28;20376;-83
2020/12/13 08:32:22;;;;;;;139.65;76.78;;;;;;;;;;5034566;28;20510;-82
2020/12/13 08:34:51;;;;;;;131.77;75.43;;;;;;;;;;5034657;28;20406;-83
2020/12/13 08:37:24;;;;;;;120.07;69.53;;;;;;;;;;5032260;28;20379;-84
2020/12/13 08:39:53;;;;;;;122.70;71.47;;;;;;;;;;5052578;28;20423;-83
2020/12/13 08:42:23;;;;;;;123.38;69.95;;;;;;;;;;5034166;28;20376;-83
2020/12/13 08:44:49;;;;;;;117.97;70.63;;;;;;;;;;5034817;28;20375;-83
2020/12/13 08:47:17;;;;;;;119.50;69.18;;;;;;;;;;5033530;28;20406;-84
2020/12/13 08:49:47;;;;;;;114.78;66.88;;;;;;;;;;5033813;28;20912;-83
2020/12/13 08:52:13;;;;;;;123.13;71.60;;;;;;;;;;5035858;28;20383;-84
2020/12/13 08:54:49;;;;;;;117.32;67.75;;;;;;;;;;5040410;28;20392;-83
2020/12/13 08:57:27;;;;;;;118.80;68.85;;;;;;;;;;5032969;28;20514;-83
2020/12/13 09:00:01;;;;;;;119.93;71.53;;;;;;;;;;5051606;28;20360;-83
2020/12/13 09:02:27;;;;;;;108.78;66.55;;;;;;;;;;5052895;28;20366;-82
2020/12/13 09:04:57;;;;;;;114.20;67.72;;;;;;;;;;5056808;28;20365;-84
2020/12/13 09:07:23;;;;;;;123.32;72.70;;;;;;;;;;5060586;28;20373;-83
2020/12/13 09:09:49;;;;;;;120.45;70.93;;;;;;;;;;5075210;28;20351;-83
2020/12/13 09:12:19;;;;;;;111.07;66.55;;;;;;;;;;5057580;28;20396;-83
2020/12/13 09:14:46;;;;;;;111.57;67.28;;;;;;;;;;5074962;28;20363;-83
2020/12/13 09:17:12;;;;;;;107.25;65.13;;;;;;;;;;5056688;28;20363;-82
2020/12/13 09:19:51;;;;;;;116.72;66.95;;;;;;;;;;5055326;28;20378;-83
2020/12/13 09:22:21;;;;;;;110.47;67.38;;;;;;;;;;5055125;28;20373;-83
2020/12/13 09:24:47;;;;;;;120.90;68.23;;;;;;;;;;5055294;28;20358;-83
2020/12/13 09:27:19;;;;;;;112.35;66.88;;;;;;;;;;5055091;28;20374;-83
2020/12/13 09:29:47;;;;;;;106.70;64.85;;;;;;;;;;5072896;28;20728;-83
2020/12/13 09:32:13;;;;;;;107.32;65.63;;;;;;;;;;5054755;28;20385;-83
2020/12/13 09:34:39;;;;;;;112.85;68.50;;;;;;;;;;5054463;28;20366;-83
2020/12/13 09:37:16;;;;;;;115.07;67.13;;;;;;;;;;5072023;28;20369;-83
2020/12/13 09:39:42;;;;;;;102.10;61.97;;;;;;;;;;5045746;28;20372;-83
2020/12/13 09:42:09;;;;;;;109.90;66.55;;;;;;;;;;5034927;28;20455;-83
2020/12/13 09:44:35;;;;;;;103.35;63.42;;;;;;;;;;5048030;28;20389;-82
2020/12/13 09:47:01;;;;;;;106.00;63.00;;;;;;;;;;5054633;28;20405;-82
2020/12/13 09:49:28;;;;;;;103.95;64.15;;;;;;;;;;5054377;28;20366;-82
2020/12/13 09:51:58;;;;;;;104.13;63.50;;;;;;;;;;5054663;28;20411;-83
2020/12/13 09:54:25;;;;;;;99.40;62.35;;;;;;;;;;5054831;28;20736;-84
2020/12/13 09:56:51;;;;;;;103.05;62.25;;;;;;;;;;5047261;28;20376;-82
2020/12/13 09:59:18;;;;;;;101.20;60.92;;;;;;;;;;5042105;28;20388;-85
2020/12/13 10:01:44;;;;;;;99.60;62.45;;;;;;;;;;5049233;28;20445;-84
2020/12/13 10:04:10;;;;;;;97.50;59.58;;;;;;;;;;5041935;28;20461;-81
2020/12/13 10:09:31;;;;;;;98.85;61.85;;;;;;;;;;4990360;28;20485;-85
2020/12/13 10:11:57;;;;;;;100.97;62.63;;;;;;;;;;5060101;28;20502;-86
2020/12/13 10:14:23;;;;;;;100.13;62.42;;;;;;;;;;5057303;28;20390;-82
2020/12/13 10:16:50;;;;;;;99.78;61.47;;;;;;;;;;5034664;28;20383;-82
2020/12/13 10:19:17;;;;;;;96.22;59.83;;;;;;;;;;5055007;28;20860;-83
2020/12/13 10:21:44;;;;;;;90.07;58.25;;;;;;;;;;5040814;28;20378;-84
2020/12/13 10:24:11;;;;;;;97.00;59.53;;;;;;;;;;5063393;28;20378;-82
2020/12/13 10:26:39;;;;;;;90.00;57.58;;;;;;;;;;5061378;28;20390;-82
2020/12/13 10:29:05;;;;;;;91.00;58.23;;;;;;;;;;5038541;28;20379;-83
2020/12/13 10:31:33;;;;;;;94.40;59.78;;;;;;;;;;5043581;28;20404;-80
2020/12/13 10:33:59;;;;;;;91.90;59.17;;;;;;;;;;5042780;28;20406;-81
2020/12/13 10:36:26;;;;;;;87.82;58.63;;;;;;;;;;5041825;28;20933;-81
2020/12/13 10:38:52;;;;;;;87.40;57.60;;;;;;;;;;5042740;28;20381;-86
2020/12/13 10:41:19;;;;;;;85.88;57.53;;;;;;;;;;5042088;28;20381;-83
2020/12/13 10:43:46;;;;;;;115.75;78.28;;;;;;;;;;5044326;28;20389;-80
2020/12/13 10:46:12;;;;;;;105.32;70.63;;;;;;;;;;5058499;28;20844;-82
2020/12/13 10:48:39;;;;;;;178.23;124.20;;;;;;;;;;5062379;28;20834;-80
2020/12/13 10:51:05;;;;;;;94.33;63.47;;;;;;;;;;5042467;28;20386;-80
2020/12/13 10:53:31;;;;;;;92.95;62.63;;;;;;;;;;5043336;28;20430;-81
2020/12/13 10:55:59;;;;;;;85.05;56.67;;;;;;;;;;5042283;28;20381;-80
2020/12/13 10:58:25;;;;;;;81.50;55.83;;;;;;;;;;5040231;28;20395;-80
2020/12/13 11:00:51;;;;;;;76.60;53.10;;;;;;;;;;5060152;28;20419;-80
2020/12/13 11:03:17;;;;;;;80.65;53.92;;;;;;;;;;5042042;28;20374;-81
2020/12/13 11:05:44;;;;;;;78.13;52.58;;;;;;;;;;5060520;28;20391;-82
2020/12/13 11:08:10;;;;;;;80.07;54.20;;;;;;;;;;5040595;28;20410;-81
2020/12/13 11:10:37;;;;;;;79.10;54.13;;;;;;;;;;5058377;28;20490;-81
2020/12/13 11:13:03;;;;;;;81.13;55.43;;;;;;;;;;5059067;28;20382;-81
2020/12/13 11:15:29;;;;;;;82.25;55.50;;;;;;;;;;5047422;28;20390;-81
2020/12/13 11:17:55;;;;;;;79.38;53.97;;;;;;;;;;5047250;28;20374;-81
2020/12/13 11:20:21;;;;;;;84.35;55.00;;;;;;;;;;5043598;28;20376;-81
2020/12/13 11:22:47;;;;;;;82.33;55.70;;;;;;;;;;5043886;28;20964;-81
2020/12/13 11:25:13;;;;;;;86.97;57.30;;;;;;;;;;5041345;28;20433;-81
2020/12/13 11:27:40;;;;;;;86.03;57.88;;;;;;;;;;5060900;28;20448;-87
2020/12/13 11:30:13;;;;;;;85.13;57.90;;;;;;;;;;5041429;28;20368;-85
2020/12/13 11:32:50;;;;;;;86.70;57.78;;;;;;;;;;5063272;28;20389;-82
2020/12/13 11:35:17;;;;;;;88.85;58.45;;;;;;;;;;5057589;28;20392;-79
2020/12/13 11:37:44;;;;;;;80.90;56.50;;;;;;;;;;5063426;28;21137;-82
2020/12/13 11:40:10;;;;;;;80.82;54.95;;;;;;;;;;5059661;28;20374;-82
2020/12/13 11:42:36;;;;;;;83.20;57.63;;;;;;;;;;5038622;28;20379;-83
2020/12/13 11:45:06;;;;;;;83.03;56.97;;;;;;;;;;5037573;28;20477;-83
2020/12/13 11:47:32;;;;;;;82.38;55.25;;;;;;;;;;5045080;28;20465;-81
2020/12/13 11:49:58;;;;;;;81.28;55.22;;;;;;;;;;5060028;28;20739;-83
2020/12/13 11:52:24;;;;;;;85.47;57.10;;;;;;;;;;5039920;28;20411;-82
2020/12/13 11:54:50;;;;;;;84.45;57.33;;;;;;;;;;5058538;28;20736;-81
2020/12/13 11:57:16;;;;;;;86.80;57.60;;;;;;;;;;5039846;28;20384;-81
2020/12/13 11:59:43;;;;;;;85.15;56.63;;;;;;;;;;5040538;28;20416;-82
2020/12/13 12:02:09;;;;;;;84.63;58.25;;;;;;;;;;5039394;28;20384;-81
2020/12/13 12:04:35;;;;;;;77.90;53.67;;;;;;;;;;5036830;28;20459;-81
2020/12/13 12:07:02;;;;;;;78.95;54.92;;;;;;;;;;5043023;28;20412;-81
2020/12/13 12:09:28;;;;;;;79.15;53.70;;;;;;;;;;5056508;28;20387;-81
2020/12/13 12:11:54;;;;;;;78.57;54.80;;;;;;;;;;5056249;28;20396;-82
2020/12/13 12:14:20;;;;;;;83.13;57.58;;;;;;;;;;5041061;28;20401;-81
2020/12/13 12:16:46;;;;;;;84.75;57.13;;;;;;;;;;5036887;28;20371;-81
2020/12/13 12:19:12;;;;;;;84.95;57.03;;;;;;;;;;5054792;28;20368;-81
2020/12/13 12:21:47;;;;;;;84.03;57.37;;;;;;;;;;5059258;28;20461;-81
2020/12/13 12:24:15;;;;;;;79.30;56.95;;;;;;;;;;5056885;28;20402;-81
2020/12/13 12:26:42;;;;;;;81.75;56.28;;;;;;;;;;5037071;28;20388;-82
2020/12/13 12:29:08;;;;;;;76.57;53.23;;;;;;;;;;5040966;28;20467;-82
2020/12/13 12:31:34;;;;;;;75.07;53.50;;;;;;;;;;5039536;28;20422;-84
2020/12/13 12:34:00;;;;;;;83.53;60.13;;;;;;;;;;5059557;28;20412;-82
2020/12/13 12:36:28;;;;;;;87.03;63.70;;;;;;;;;;5037892;28;20407;-83
2020/12/13 12:38:54;;;;;;;81.68;56.13;;;;;;;;;;5035232;28;20459;-82
2020/12/13 12:41:21;;;;;;;79.13;56.55;;;;;;;;;;5057227;28;20375;-82
2020/12/13 12:43:48;;;;;;;93.00;65.90;;;;;;;;;;5059712;28;20363;-82
2020/12/13 12:46:16;;;;;;;81.97;56.65;;;;;;;;;;5040846;28;20378;-83
2020/12/13 12:48:47;;;;;;;76.47;53.00;;;;;;;;;;5034055;28;20410;-82
2020/12/13 12:51:14;;;;;;;88.85;60.97;;;;;;;;;;5062524;28;20446;-82
2020/12/13 12:53:40;;;;;;;78.95;55.08;;;;;;;;;;5061455;28;20366;-82
2020/12/13 12:56:07;;;;;;;80.65;56.28;;;;;;;;;;5068821;28;20382;-83
2020/12/13 12:58:47;;;;;;;86.93;60.42;;;;;;;;;;5044396;28;20392;-84
2020/12/13 13:01:19;;;;;;;79.88;55.90;;;;;;;;;;5044385;28;20711;-82
2020/12/13 13:03:47;;;;;;;77.37;54.83;;;;;;;;;;5042981;28;20517;-82
2020/12/13 13:06:29;;;;;;;88.25;60.08;;;;;;;;;;5047976;28;20877;-82
2020/12/13 13:09:18;;;;;;;83.57;56.45;;;;;;;;;;5046240;28;21162;-81
2020/12/13 13:11:43;;;;;;;83.40;55.63;;;;;;;;;;5061475;28;20407;-82
2020/12/13 13:14:10;;;;;;;81.30;57.53;;;;;;;;;;5063606;28;20837;-84
2020/12/13 13:16:37;;;;;;;80.32;56.88;;;;;;;;;;5064918;28;20366;-83
2020/12/13 13:19:06;;;;;;;82.45;55.05;;;;;;;;;;5042445;28;20747;-84
2020/12/13 13:21:42;;;;;;;85.07;58.47;;;;;;;;;;5063227;28;20374;-83
2020/12/13 13:24:10;;;;;;;79.07;55.20;;;;;;;;;;5046882;28;20384;-83
2020/12/13 13:26:36;;;;;;;80.05;56.10;;;;;;;;;;5040856;28;20386;-83
2020/12/13 13:29:03;;;;;;;84.35;56.45;;;;;;;;;;5043598;28;20372;-83
2020/12/13 13:31:29;;;;;;;80.15;54.78;;;;;;;;;;5041312;28;20405;-83
2020/12/13 13:33:57;;;;;;;87.33;58.17;;;;;;;;;;5043077;28;20895;-82
2020/12/13 13:36:23;;;;;;;87.35;58.63;;;;;;;;;;5039917;28;20876;-83
2020/12/13 13:38:50;;;;;;;88.80;60.23;;;;;;;;;;5041145;28;20467;-82
2020/12/13 13:41:26;;;;;;;86.57;60.20;;;;;;;;;;5026814;28;20394;-82
2020/12/13 13:43:56;;;;;;;92.05;62.35;;;;;;;;;;5044790;28;20395;-81
2020/12/13 13:49:25;;;;;;;89.43;60.67;;;;;;;;;;5057462;28;20415;-84
2020/12/13 13:51:51;;;;;;;91.90;61.25;;;;;;;;;;5041890;28;20804;-84
2020/12/13 13:54:19;;;;;;;87.25;59.83;;;;;;;;;;5041268;28;20385;-83
2020/12/13 13:56:59;;;;;;;90.30;60.95;;;;;;;;;;5038164;28;20371;-83
2020/12/13 13:59:30;;;;;;;94.55;61.88;;;;;;;;;;5056256;28;20613;-83
2020/12/13 14:01:56;;;;;;;90.85;61.08;;;;;;;;;;5040212;28;20420;-83
2020/12/13 14:04:24;;;;;;;92.30;62.10;;;;;;;;;;5045739;28;20419;-84
2020/12/13 14:09:27;;;;;;;89.05;59.85;;;;;;;;;;5058693;28;20587;-83
2020/12/13 14:11:57;;;;;;;87.38;59.03;;;;;;;;;;5044497;28;20404;-82
2020/12/13 14:14:23;;;;;;;88.72;61.47;;;;;;;;;;5064011;28;20696;-84
2020/12/13 14:16:49;;;;;;;91.47;61.33;;;;;;;;;;5045161;28;20424;-85
2020/12/13 14:19:16;;;;;;;87.72;59.58;;;;;;;;;;5036779;28;20426;-87
2020/12/13 14:21:42;;;;;;;89.53;59.25;;;;;;;;;;5052522;28;20389;-83
2020/12/13 14:24:09;;;;;;;97.40;64.17;;;;;;;;;;5039532;28;20374;-85
2020/12/13 14:26:38;;;;;;;94.85;64.50;;;;;;;;;;5041797;28;20443;-84